VKG1VP EKBI-EKCH
Flight info
| Callsign | VKG1VP |
|---|---|
| Flight time | 0h 25m |
| Altitude | 15000 |
| Route | ABINO T56 TESPI |
| Aircraft | A321/M-SDE3FGHIRWY/LB1 |
Departure
| Time | 2026-04-24 19:13 |
|---|---|
| Airport | Billund Airport (EKBI) |
Arrival
| Time | 2026-04-24 19:38 |
|---|---|
| Airport | Copenhagen Kastrup Airport (EKCH) |
| Time | Latitude | Longitude | Altitude | Speed | Heading |
|---|---|---|---|---|---|
| 2026-04-24 18:54 | 55.74542 | 9.15078 | 241 ft | 0 kts | 357° |
| 2026-04-24 18:58 | 55.74534 | 9.15079 | 241 ft | 4 kts | 357° |
| 2026-04-24 18:58 | 55.74507 | 9.15081 | 241 ft | 4 kts | 355° |
| 2026-04-24 18:58 | 55.74483 | 9.15087 | 241 ft | 2 kts | 347° |
| 2026-04-24 18:59 | 55.74460 | 9.15096 | 241 ft | 4 kts | 345° |
| 2026-04-24 18:59 | 55.74438 | 9.15106 | 241 ft | 2 kts | 347° |
| 2026-04-24 18:59 | 55.74452 | 9.15098 | 241 ft | 4 kts | 339° |
| 2026-04-24 18:59 | 55.74458 | 9.15071 | 241 ft | 3 kts | 268° |
| 2026-04-24 19:00 | 55.74458 | 9.15082 | 241 ft | 2 kts | 267° |
| 2026-04-24 19:00 | 55.74458 | 9.15083 | 241 ft | 0 kts | 267° |
| 2026-04-24 19:03 | 55.74458 | 9.15082 | 241 ft | 1 kts | 267° |
| 2026-04-24 19:03 | 55.74457 | 9.15044 | 241 ft | 5 kts | 266° |
| 2026-04-24 19:03 | 55.74442 | 9.14996 | 241 ft | 5 kts | 220° |
| 2026-04-24 19:04 | 55.74397 | 9.14983 | 241 ft | 8 kts | 180° |
| 2026-04-24 19:04 | 55.74335 | 9.14984 | 241 ft | 10 kts | 179° |
| 2026-04-24 19:04 | 55.74268 | 9.14987 | 241 ft | 9 kts | 177° |
| 2026-04-24 19:04 | 55.74214 | 9.15008 | 241 ft | 7 kts | 142° |
| 2026-04-24 19:05 | 55.74198 | 9.15082 | 241 ft | 6 kts | 92° |
| 2026-04-24 19:05 | 55.74200 | 9.15158 | 241 ft | 6 kts | 90° |
| 2026-04-24 19:05 | 55.74201 | 9.15229 | 241 ft | 6 kts | 86° |
| 2026-04-24 19:05 | 55.74205 | 9.15322 | 241 ft | 8 kts | 87° |
| 2026-04-24 19:06 | 55.74207 | 9.15420 | 241 ft | 8 kts | 87° |
| 2026-04-24 19:06 | 55.74211 | 9.15551 | 241 ft | 11 kts | 87° |
| 2026-04-24 19:06 | 55.74215 | 9.15687 | 241 ft | 11 kts | 86° |
| 2026-04-24 19:06 | 55.74220 | 9.15816 | 241 ft | 10 kts | 86° |
| 2026-04-24 19:07 | 55.74223 | 9.15934 | 241 ft | 9 kts | 86° |
| 2026-04-24 19:07 | 55.74227 | 9.16065 | 241 ft | 13 kts | 87° |
| 2026-04-24 19:07 | 55.74231 | 9.16170 | 241 ft | 13 kts | 85° |
| 2026-04-24 19:07 | 55.74236 | 9.16363 | 241 ft | 11 kts | 86° |
| 2026-04-24 19:08 | 55.74239 | 9.16498 | 241 ft | 11 kts | 88° |
| 2026-04-24 19:08 | 55.74244 | 9.16654 | 241 ft | 14 kts | 86° |
| 2026-04-24 19:08 | 55.74249 | 9.16816 | 241 ft | 12 kts | 86° |
| 2026-04-24 19:08 | 55.74256 | 9.16962 | 241 ft | 12 kts | 85° |
| 2026-04-24 19:09 | 55.74263 | 9.17119 | 241 ft | 13 kts | 86° |
| 2026-04-24 19:09 | 55.74267 | 9.17284 | 241 ft | 16 kts | 88° |
| 2026-04-24 19:09 | 55.74271 | 9.17474 | 241 ft | 15 kts | 86° |
| 2026-04-24 19:09 | 55.74276 | 9.17650 | 241 ft | 14 kts | 86° |
| 2026-04-24 19:10 | 55.74282 | 9.17810 | 241 ft | 12 kts | 86° |
| 2026-04-24 19:10 | 55.74286 | 9.17963 | 241 ft | 14 kts | 90° |
| 2026-04-24 19:10 | 55.74251 | 9.18123 | 241 ft | 14 kts | 143° |
| 2026-04-24 19:10 | 55.74164 | 9.18149 | 241 ft | 12 kts | 188° |
| 2026-04-24 19:11 | 55.74122 | 9.18052 | 242 ft | 6 kts | 266° |
| 2026-04-24 19:11 | 55.74121 | 9.18009 | 242 ft | 2 kts | 267° |
| 2026-04-24 19:11 | 55.74121 | 9.18004 | 242 ft | 0 kts | 267° |
| 2026-04-24 19:12 | 55.74120 | 9.18000 | 242 ft | 3 kts | 268° |
| 2026-04-24 19:12 | 55.74110 | 9.17583 | 242 ft | 69 kts | 267° |
| 2026-04-24 19:12 | 55.74071 | 9.16381 | 244 ft | 124 kts | 267° |
| 2026-04-24 19:12 | 55.74012 | 9.14625 | 408 ft | 150 kts | 270° |
| 2026-04-24 19:13 | 55.73970 | 9.13426 | 879 ft | 145 kts | 272° |
| 2026-04-24 19:13 | 55.74539 | 9.11451 | 1712 ft | 141 kts | 330° |
| 2026-04-24 19:13 | 55.75508 | 9.11169 | 2312 ft | 147 kts | 1° |
| 2026-04-24 19:13 | 55.76480 | 9.12033 | 2750 ft | 168 kts | 28° |
| 2026-04-24 19:14 | 55.77421 | 9.13393 | 3082 ft | 182 kts | 30° |
| 2026-04-24 19:14 | 55.78356 | 9.15103 | 3309 ft | 210 kts | 51° |
| 2026-04-24 19:14 | 55.78813 | 9.17778 | 3502 ft | 240 kts | 75° |
| 2026-04-24 19:14 | 55.78936 | 9.20886 | 3787 ft | 262 kts | 84° |
| 2026-04-24 19:15 | 55.78929 | 9.24271 | 4176 ft | 283 kts | 87° |
| 2026-04-24 19:15 | 55.78842 | 9.27784 | 4994 ft | 286 kts | 89° |
| 2026-04-24 19:15 | 55.78723 | 9.31338 | 5801 ft | 289 kts | 90° |
| 2026-04-24 19:15 | 55.78623 | 9.34927 | 6600 ft | 292 kts | 88° |
| 2026-04-24 19:16 | 55.78597 | 9.42149 | 8067 ft | 297 kts | 85° |
| 2026-04-24 19:16 | 55.78619 | 9.45836 | 8813 ft | 301 kts | 84° |
| 2026-04-24 19:16 | 55.78639 | 9.49587 | 9522 ft | 306 kts | 84° |
| 2026-04-24 19:17 | 55.78643 | 9.53395 | 10183 ft | 311 kts | 85° |
| 2026-04-24 19:17 | 55.78641 | 9.57354 | 10442 ft | 332 kts | 85° |
| 2026-04-24 19:17 | 55.78651 | 9.61597 | 10598 ft | 354 kts | 85° |
| 2026-04-24 19:17 | 55.78661 | 9.66094 | 10874 ft | 370 kts | 86° |
| 2026-04-24 19:18 | 55.78664 | 9.70707 | 11437 ft | 376 kts | 86° |
| 2026-04-24 19:18 | 55.78662 | 9.75384 | 12046 ft | 380 kts | 86° |
| 2026-04-24 19:18 | 55.78653 | 9.80109 | 12674 ft | 385 kts | 86° |
| 2026-04-24 19:18 | 55.78645 | 9.84899 | 13299 ft | 389 kts | 86° |
| 2026-04-24 19:19 | 55.78641 | 9.88092 | 13740 ft | 392 kts | 86° |
| 2026-04-24 19:19 | 55.78634 | 9.92958 | 14318 ft | 396 kts | 86° |
| 2026-04-24 19:19 | 55.78625 | 9.97859 | 14825 ft | 400 kts | 86° |
| 2026-04-24 19:19 | 55.78614 | 10.02807 | 14981 ft | 401 kts | 86° |
| 2026-04-24 19:20 | 55.78597 | 10.07802 | 15042 ft | 410 kts | 86° |
| 2026-04-24 19:20 | 55.78579 | 10.12895 | 15040 ft | 414 kts | 86° |
| 2026-04-24 19:20 | 55.78559 | 10.18014 | 15045 ft | 415 kts | 86° |
| 2026-04-24 19:20 | 55.78537 | 10.23145 | 15031 ft | 415 kts | 86° |
| 2026-04-24 19:21 | 55.78514 | 10.28278 | 15033 ft | 416 kts | 86° |
| 2026-04-24 19:21 | 55.78312 | 10.33409 | 15028 ft | 420 kts | 98° |
| 2026-04-24 19:21 | 55.77627 | 10.38463 | 15033 ft | 421 kts | 101° |
| 2026-04-24 19:21 | 55.76915 | 10.43499 | 15030 ft | 421 kts | 101° |
| 2026-04-24 19:22 | 55.76195 | 10.48538 | 15030 ft | 421 kts | 101° |
| 2026-04-24 19:22 | 55.75467 | 10.53573 | 15028 ft | 421 kts | 102° |
| 2026-04-24 19:22 | 55.74734 | 10.58606 | 15027 ft | 421 kts | 102° |
| 2026-04-24 19:22 | 55.74001 | 10.63622 | 15017 ft | 421 kts | 102° |
| 2026-04-24 19:23 | 55.73268 | 10.68644 | 15016 ft | 420 kts | 102° |
| 2026-04-24 19:23 | 55.72533 | 10.73661 | 15013 ft | 420 kts | 102° |
| 2026-04-24 19:23 | 55.71797 | 10.78681 | 15010 ft | 420 kts | 102° |
| 2026-04-24 19:23 | 55.71063 | 10.83690 | 15006 ft | 420 kts | 102° |
| 2026-04-24 19:24 | 55.70326 | 10.88702 | 15006 ft | 421 kts | 102° |
| 2026-04-24 19:24 | 55.69585 | 10.93731 | 15004 ft | 421 kts | 102° |
| 2026-04-24 19:24 | 55.68845 | 10.98746 | 15004 ft | 421 kts | 102° |
| 2026-04-24 19:24 | 55.68105 | 11.03739 | 14885 ft | 415 kts | 102° |
| 2026-04-24 19:25 | 55.67379 | 11.08615 | 14646 ft | 403 kts | 102° |
| 2026-04-24 19:25 | 55.66669 | 11.13345 | 14415 ft | 393 kts | 102° |
| 2026-04-24 19:25 | 55.65967 | 11.17995 | 14137 ft | 386 kts | 102° |
| 2026-04-24 19:25 | 55.65275 | 11.22579 | 13669 ft | 384 kts | 102° |
| 2026-04-24 19:26 | 55.64586 | 11.27137 | 13163 ft | 382 kts | 102° |
| 2026-04-24 19:26 | 55.63904 | 11.31643 | 12980 ft | 372 kts | 102° |
| 2026-04-24 19:26 | 55.63255 | 11.35906 | 13007 ft | 355 kts | 101° |
| 2026-04-24 19:26 | 55.62617 | 11.40091 | 12526 ft | 355 kts | 101° |
| 2026-04-24 19:27 | 55.61965 | 11.44399 | 11623 ft | 370 kts | 102° |
| 2026-04-24 19:27 | 55.61292 | 11.48860 | 10757 ft | 381 kts | 102° |
| 2026-04-24 19:27 | 55.60607 | 11.53371 | 10429 ft | 373 kts | 102° |
| 2026-04-24 19:27 | 55.59939 | 11.57711 | 10310 ft | 359 kts | 102° |
| 2026-04-24 19:28 | 55.59282 | 11.61955 | 10138 ft | 348 kts | 102° |
| 2026-04-24 19:28 | 55.58661 | 11.65958 | 9996 ft | 336 kts | 102° |
| 2026-04-24 19:28 | 55.58052 | 11.69872 | 9868 ft | 325 kts | 102° |
| 2026-04-24 19:28 | 55.57466 | 11.73665 | 9618 ft | 317 kts | 102° |
| 2026-04-24 19:29 | 55.56311 | 11.81122 | 8699 ft | 312 kts | 102° |
| 2026-04-24 19:29 | 55.55736 | 11.84807 | 8235 ft | 310 kts | 102° |
| 2026-04-24 19:29 | 55.55165 | 11.88471 | 7503 ft | 307 kts | 102° |
| 2026-04-24 19:30 | 55.54606 | 11.92031 | 7038 ft | 294 kts | 102° |
| 2026-04-24 19:30 | 55.54111 | 11.95410 | 6794 ft | 275 kts | 100° |
| 2026-04-24 19:30 | 55.53653 | 11.98592 | 6658 ft | 259 kts | 100° |
| 2026-04-24 19:30 | 55.53211 | 12.01618 | 6430 ft | 250 kts | 100° |
| 2026-04-24 19:31 | 55.52779 | 12.04561 | 6056 ft | 247 kts | 101° |
| 2026-04-24 19:31 | 55.52360 | 12.07477 | 5752 ft | 244 kts | 100° |
| 2026-04-24 19:31 | 55.51950 | 12.10367 | 5420 ft | 242 kts | 100° |
| 2026-04-24 19:31 | 55.51536 | 12.13236 | 5106 ft | 240 kts | 101° |
| 2026-04-24 19:32 | 55.51128 | 12.16083 | 4777 ft | 239 kts | 101° |
| 2026-04-24 19:32 | 55.50734 | 12.18891 | 4507 ft | 234 kts | 101° |
| 2026-04-24 19:32 | 55.50352 | 12.21659 | 4196 ft | 231 kts | 101° |
| 2026-04-24 19:32 | 55.49988 | 12.24422 | 3873 ft | 230 kts | 101° |
| 2026-04-24 19:33 | 55.49645 | 12.27090 | 3680 ft | 217 kts | 101° |
| 2026-04-24 19:33 | 55.49326 | 12.29653 | 3363 ft | 210 kts | 101° |
| 2026-04-24 19:33 | 55.49028 | 12.32120 | 3096 ft | 203 kts | 100° |
| 2026-04-24 19:33 | 55.48746 | 12.34561 | 2740 ft | 203 kts | 101° |
| 2026-04-24 19:34 | 55.48477 | 12.36942 | 2480 ft | 197 kts | 100° |
| 2026-04-24 19:34 | 55.48312 | 12.39306 | 2197 ft | 193 kts | 84° |
| 2026-04-24 19:34 | 55.48600 | 12.41639 | 2020 ft | 199 kts | 67° |
| 2026-04-24 19:34 | 55.49243 | 12.43797 | 2018 ft | 200 kts | 52° |
| 2026-04-24 19:35 | 55.50051 | 12.45753 | 2016 ft | 195 kts | 48° |
| 2026-04-24 19:35 | 55.50901 | 12.47622 | 1997 ft | 194 kts | 44° |
| 2026-04-24 19:35 | 55.51807 | 12.49252 | 1907 ft | 177 kts | 37° |
| 2026-04-24 19:35 | 55.52715 | 12.50646 | 1716 ft | 170 kts | 34° |
| 2026-04-24 19:36 | 55.53615 | 12.51907 | 1464 ft | 160 kts | 33° |
| 2026-04-24 19:36 | 55.54444 | 12.53081 | 1209 ft | 155 kts | 34° |
| 2026-04-24 19:36 | 55.55290 | 12.54330 | 1006 ft | 154 kts | 37° |
| 2026-04-24 19:36 | 55.56100 | 12.55550 | 848 ft | 152 kts | 37° |
| 2026-04-24 19:37 | 55.56901 | 12.56757 | 679 ft | 151 kts | 37° |
| 2026-04-24 19:37 | 55.57693 | 12.57967 | 472 ft | 151 kts | 40° |
| 2026-04-24 19:37 | 55.58466 | 12.59197 | 269 ft | 149 kts | 39° |
| 2026-04-24 19:37 | 55.59233 | 12.60377 | 69 ft | 147 kts | 39° |
| 2026-04-24 19:38 | 55.59972 | 12.61501 | 20 ft | 128 kts | 41° |
| 2026-04-24 19:38 | 55.60496 | 12.62324 | 19 ft | 75 kts | 41° |
| 2026-04-24 19:38 | 55.60748 | 12.62710 | 21 ft | 33 kts | 37° |
| 2026-04-24 19:38 | 55.60896 | 12.62834 | 19 ft | 19 kts | 17° |
| 2026-04-24 19:39 | 55.61002 | 12.62876 | 17 ft | 12 kts | 10° |
| 2026-04-24 19:39 | 55.61083 | 12.62905 | 17 ft | 11 kts | 13° |
| 2026-04-24 19:39 | 55.61151 | 12.62960 | 19 ft | 10 kts | 39° |
| 2026-04-24 19:39 | 55.61202 | 12.63039 | 19 ft | 9 kts | 42° |
| 2026-04-24 19:40 | 55.61251 | 12.63115 | 19 ft | 10 kts | 40° |
| 2026-04-24 19:40 | 55.61313 | 12.63211 | 19 ft | 13 kts | 41° |
| 2026-04-24 19:40 | 55.61381 | 12.63317 | 19 ft | 13 kts | 41° |
| 2026-04-24 19:40 | 55.61447 | 12.63419 | 18 ft | 13 kts | 41° |
| 2026-04-24 19:41 | 55.61514 | 12.63524 | 17 ft | 12 kts | 41° |
| 2026-04-24 19:41 | 55.61586 | 12.63636 | 17 ft | 15 kts | 41° |
| 2026-04-24 19:41 | 55.61659 | 12.63748 | 17 ft | 14 kts | 42° |
| 2026-04-24 19:41 | 55.61728 | 12.63855 | 19 ft | 12 kts | 41° |
| 2026-04-24 19:42 | 55.61779 | 12.63934 | 17 ft | 8 kts | 41° |
| 2026-04-24 19:42 | 55.61832 | 12.64015 | 19 ft | 10 kts | 40° |
| 2026-04-24 19:42 | 55.61879 | 12.64077 | 17 ft | 7 kts | 33° |
| 2026-04-24 19:42 | 55.61932 | 12.64127 | 19 ft | 10 kts | 25° |
| 2026-04-24 19:43 | 55.61992 | 12.64174 | 17 ft | 8 kts | 21° |
| 2026-04-24 19:43 | 55.62038 | 12.64210 | 17 ft | 7 kts | 26° |
| 2026-04-24 19:43 | 55.62076 | 12.64244 | 19 ft | 6 kts | 26° |
| 2026-04-24 19:43 | 55.62116 | 12.64278 | 19 ft | 7 kts | 26° |
| 2026-04-24 19:44 | 55.62154 | 12.64312 | 17 ft | 8 kts | 26° |
| 2026-04-24 19:44 | 55.62223 | 12.64363 | 17 ft | 11 kts | 14° |
| 2026-04-24 19:44 | 55.62275 | 12.64306 | 16 ft | 10 kts | 303° |
| 2026-04-24 19:44 | 55.62318 | 12.64181 | 16 ft | 14 kts | 301° |
| 2026-04-24 19:45 | 55.62372 | 12.64027 | 16 ft | 16 kts | 303° |
| 2026-04-24 19:45 | 55.62437 | 12.63853 | 16 ft | 18 kts | 303° |
| 2026-04-24 19:45 | 55.62511 | 12.63661 | 19 ft | 20 kts | 304° |
| 2026-04-24 19:45 | 55.62585 | 12.63517 | 16 ft | 11 kts | 335° |
| 2026-04-24 19:46 | 55.62659 | 12.63478 | 16 ft | 11 kts | 330° |
| 2026-04-24 19:46 | 55.62708 | 12.63367 | 18 ft | 12 kts | 304° |
| 2026-04-24 19:46 | 55.62775 | 12.63329 | 17 ft | 11 kts | 30° |
| 2026-04-24 19:46 | 55.62833 | 12.63399 | 17 ft | 9 kts | 43° |
| 2026-04-24 19:47 | 55.62864 | 12.63472 | 20 ft | 7 kts | 43° |
| 2026-04-24 19:47 | 55.62889 | 12.63509 | 18 ft | 1 kts | 41° |
| 2026-04-24 19:47 | 55.62892 | 12.63514 | 19 ft | 1 kts | 41° |
| 2026-04-24 19:47 | 55.62895 | 12.63519 | 17 ft | 1 kts | 41° |
| 2026-04-24 19:48 | 55.62898 | 12.63523 | 17 ft | 0 kts | 41° |
| 2026-04-24 19:48 | 55.62898 | 12.63524 | 17 ft | 0 kts | 41° |